createdAt,value
2022-08-04T00:00:14.483Z,6.90
2022-08-04T00:01:18.892Z,8.80
2022-08-04T00:02:23.233Z,6.90
2022-08-04T00:03:27.601Z,10.60
2022-08-04T00:04:31.974Z,12.50
2022-08-04T00:05:36.335Z,7.90
2022-08-04T00:06:40.735Z,10.50
2022-08-04T00:07:45.404Z,8.50
2022-08-04T00:08:49.464Z,7.70
2022-08-04T00:09:53.833Z,10.70
2022-08-04T00:10:58.195Z,6.70
2022-08-04T00:12:02.594Z,9.30
2022-08-04T00:13:06.957Z,8.30
2022-08-04T00:14:11.314Z,7.60
2022-08-04T00:15:16.713Z,9.00
2022-08-04T00:16:20.045Z,5.80
2022-08-04T00:17:24.425Z,9.70
2022-08-04T00:18:28.778Z,9.20
2022-08-04T00:19:33.158Z,9.90
2022-08-04T00:20:37.517Z,9.10
2022-08-04T00:21:41.978Z,9.60
2022-08-04T00:22:46.356Z,11.00
2022-08-04T00:24:10.496Z,10.50
2022-08-04T00:24:55.096Z,10.20
2022-08-04T00:26:00.330Z,11.80
2022-08-04T00:27:04.707Z,8.90
2022-08-04T00:28:09.287Z,10.10
2022-08-04T00:29:13.500Z,11.90
2022-08-04T00:30:17.867Z,9.00
2022-08-04T00:31:54.219Z,9.50
2022-08-04T00:32:34.125Z,8.80
2022-08-04T00:33:30.998Z,5.40
2022-08-04T00:34:35.368Z,9.30
2022-08-04T00:35:39.732Z,6.30
2022-08-04T00:36:44.098Z,13.50
2022-08-04T00:37:48.496Z,7.60
2022-08-04T00:38:52.892Z,9.50
2022-08-04T00:39:57.221Z,9.30
2022-08-04T00:41:01.580Z,9.00
2022-08-04T00:42:05.971Z,12.40
2022-08-04T00:43:10.331Z,9.10
2022-08-04T00:44:14.703Z,7.30
2022-08-04T00:45:19.075Z,6.40
2022-08-04T00:46:23.431Z,8.00
2022-08-04T00:47:27.819Z,6.90
2022-08-04T00:48:32.181Z,10.20
2022-08-04T00:49:36.571Z,9.20
2022-08-04T00:50:40.933Z,9.40
2022-08-04T00:51:45.300Z,10.50
2022-08-04T00:52:49.682Z,10.50
2022-08-04T00:53:54.058Z,7.80
2022-08-04T00:54:58.413Z,7.10
2022-08-04T00:56:02.792Z,9.20
2022-08-04T00:57:07.151Z,10.00
2022-08-04T00:58:11.541Z,7.40
2022-08-04T00:59:15.907Z,7.70
2022-08-04T01:00:20.265Z,8.30
2022-08-04T01:01:24.915Z,6.80
2022-08-04T01:02:29.156Z,10.50
2022-08-04T01:03:33.521Z,9.10
2022-08-04T01:04:37.876Z,8.90
2022-08-04T01:05:42.242Z,7.90
2022-08-04T01:06:50.880Z,9.10
2022-08-04T01:07:51.005Z,7.20
2022-08-04T01:08:55.373Z,6.70
2022-08-04T01:09:59.735Z,8.60
2022-08-04T01:11:04.104Z,13.10
2022-08-04T01:12:08.490Z,9.20
2022-08-04T01:13:15.473Z,8.60
2022-08-04T01:14:17.234Z,11.10
2022-08-04T01:15:21.595Z,10.50
2022-08-04T01:16:25.964Z,6.80
2022-08-04T01:17:30.346Z,8.60
2022-08-04T01:18:34.728Z,7.50
2022-08-04T01:19:39.097Z,12.00
2022-08-04T01:20:43.468Z,9.30
2022-08-04T01:21:47.827Z,9.10
2022-08-04T01:22:52.216Z,8.90
2022-08-04T01:23:56.587Z,6.30
2022-08-04T01:25:02.359Z,9.60
2022-08-04T01:26:42.344Z,9.00
2022-08-04T01:27:09.724Z,10.10
2022-08-04T01:28:14.078Z,13.20
2022-08-04T01:29:18.457Z,9.60
2022-08-04T01:30:22.819Z,8.20
2022-08-04T01:31:27.189Z,10.00
2022-08-04T01:32:31.578Z,9.00
2022-08-04T01:33:58.512Z,8.50
2022-08-04T01:34:40.333Z,13.10
2022-08-04T01:35:47.289Z,10.50
2022-08-04T01:36:50.023Z,12.60
2022-08-04T01:37:53.457Z,7.30
2022-08-04T01:38:57.843Z,9.10
2022-08-04T01:40:02.202Z,8.80
2022-08-04T01:41:06.576Z,8.30
2022-08-04T01:42:10.940Z,10.70
2022-08-04T01:43:15.322Z,8.90
2022-08-04T01:44:19.691Z,8.20
2022-08-04T01:45:24.069Z,8.20
2022-08-04T01:46:28.430Z,8.20
2022-08-04T01:47:32.835Z,10.40
2022-08-04T01:48:37.274Z,11.50
2022-08-04T01:49:41.610Z,9.40
2022-08-04T01:50:45.991Z,8.20
2022-08-04T01:51:50.460Z,8.40
2022-08-04T01:52:54.755Z,8.10
2022-08-04T01:53:59.122Z,9.90
2022-08-04T01:55:03.484Z,11.60
2022-08-04T01:56:07.851Z,8.60
2022-08-04T01:57:45.948Z,12.90
2022-08-04T01:58:16.609Z,8.00
2022-08-04T01:59:20.972Z,6.70
2022-08-04T02:00:25.360Z,12.30
2022-08-04T02:01:29.777Z,9.30
2022-08-04T02:02:34.196Z,10.80
2022-08-04T02:04:18.362Z,9.50
2022-08-04T02:04:42.861Z,11.60
2022-08-04T02:06:03.070Z,12.20
2022-08-04T02:06:51.597Z,11.60
2022-08-04T02:07:55.984Z,12.00
2022-08-04T02:09:00.355Z,15.80
2022-08-04T02:10:04.723Z,9.40
2022-08-04T02:11:09.084Z,11.20
2022-08-04T02:12:16.305Z,12.80
2022-08-04T02:13:17.847Z,8.30
2022-08-04T02:14:22.222Z,10.00
2022-08-04T02:15:26.585Z,9.80
2022-08-04T02:16:31.825Z,8.50
2022-08-04T02:17:36.196Z,13.60
2022-08-04T02:18:40.586Z,9.30
2022-08-04T02:19:44.966Z,8.90
2022-08-04T02:20:49.335Z,8.20
2022-08-04T02:21:53.695Z,11.50
2022-08-04T02:22:58.066Z,7.90
2022-08-04T02:24:02.457Z,7.60
2022-08-04T02:25:06.827Z,10.00
2022-08-04T02:26:13.282Z,9.70
2022-08-04T02:27:15.558Z,16.60
2022-08-04T02:28:19.955Z,8.00
2022-08-04T02:29:24.325Z,8.70
2022-08-04T02:30:28.686Z,8.40
2022-08-04T02:31:33.068Z,11.80
2022-08-04T02:32:37.438Z,10.60
2022-08-04T02:33:41.825Z,10.10
2022-08-04T02:34:46.187Z,8.40
2022-08-04T02:35:50.559Z,9.50
2022-08-04T02:36:54.939Z,8.60
2022-08-04T02:37:59.308Z,10.50
2022-08-04T02:39:03.731Z,9.00
2022-08-04T02:40:08.069Z,8.00
2022-08-04T02:41:12.450Z,9.60
2022-08-04T02:42:16.818Z,9.10
2022-08-04T02:43:51.330Z,8.20
2022-08-04T02:44:25.590Z,6.20
2022-08-04T02:45:29.949Z,6.00
2022-08-04T02:46:34.323Z,13.10
2022-08-04T02:48:28.745Z,10.30
2022-08-04T02:48:43.082Z,9.70
2022-08-04T02:49:47.451Z,8.70
2022-08-04T02:50:52.070Z,9.10
2022-08-04T02:51:56.222Z,5.00
2022-08-04T02:53:00.613Z,7.10
2022-08-04T02:54:04.982Z,11.70
2022-08-04T02:55:09.362Z,8.10
2022-08-04T02:56:13.731Z,8.30
2022-08-04T02:57:18.119Z,8.90
2022-08-04T02:58:22.481Z,9.70
2022-08-04T02:59:26.881Z,12.50
2022-08-04T03:00:31.253Z,9.50
2022-08-04T03:01:35.668Z,9.80
2022-08-04T03:02:40.000Z,8.20
2022-08-04T03:03:44.380Z,8.00
2022-08-04T03:04:48.772Z,10.80
2022-08-04T03:06:00.856Z,12.20
2022-08-04T03:06:57.525Z,7.30
2022-08-04T03:08:01.913Z,6.40
2022-08-04T03:09:06.304Z,7.30
2022-08-04T03:10:10.684Z,7.50
2022-08-04T03:11:15.067Z,9.50
2022-08-04T03:12:19.440Z,8.70
2022-08-04T03:13:23.807Z,10.70
2022-08-04T03:14:28.202Z,7.00
2022-08-04T03:15:32.572Z,7.10
2022-08-04T03:16:38.908Z,7.70
2022-08-04T03:17:52.646Z,4.90
2022-08-04T03:18:45.714Z,6.40
2022-08-04T03:19:50.075Z,7.90
2022-08-04T03:20:54.458Z,8.40
2022-08-04T03:21:58.825Z,6.60
2022-08-04T03:23:18.353Z,5.70
2022-08-04T03:24:07.595Z,8.00
2022-08-04T03:25:11.966Z,6.50
2022-08-04T03:26:16.340Z,7.20
2022-08-04T03:27:21.034Z,5.20
2022-08-04T03:28:25.080Z,7.00
2022-08-04T03:29:36.665Z,9.20
2022-08-04T03:30:33.851Z,7.80
2022-08-04T03:31:38.217Z,8.50
2022-08-04T03:32:42.580Z,8.40
2022-08-04T03:33:46.948Z,10.50
2022-08-04T03:34:51.350Z,7.00
2022-08-04T03:35:55.716Z,10.80
2022-08-04T03:37:00.111Z,9.10
2022-08-04T03:38:04.451Z,8.60
2022-08-04T03:39:08.884Z,8.90
2022-08-04T03:40:13.222Z,7.70
2022-08-04T03:41:17.589Z,6.80
2022-08-04T03:42:21.959Z,7.30
2022-08-04T03:43:58.808Z,5.50
2022-08-04T03:44:30.739Z,8.90
2022-08-04T03:45:35.108Z,10.50
2022-08-04T03:46:39.492Z,6.40
2022-08-04T03:47:44.534Z,9.90
2022-08-04T03:48:48.240Z,7.00
2022-08-04T03:49:52.636Z,7.00
2022-08-04T03:50:57.010Z,10.40
2022-08-04T03:52:01.390Z,7.40
2022-08-04T03:53:05.751Z,12.80
2022-08-04T03:54:10.131Z,6.80
2022-08-04T03:55:14.533Z,7.70
2022-08-04T03:56:18.901Z,12.00
2022-08-04T03:57:23.618Z,10.00
2022-08-04T03:58:30.539Z,7.70
2022-08-04T03:59:32.013Z,7.50
2022-08-04T04:00:36.404Z,7.20
2022-08-04T04:02:02.845Z,8.30
2022-08-04T04:02:45.234Z,8.70
2022-08-04T04:03:49.531Z,8.90
2022-08-04T04:04:55.179Z,5.20
2022-08-04T04:06:00.344Z,8.00
2022-08-04T04:07:03.526Z,7.80
2022-08-04T04:08:12.519Z,6.00
2022-08-04T04:09:16.198Z,8.40
2022-08-04T04:10:15.815Z,7.00
2022-08-04T04:11:20.183Z,7.70
2022-08-04T04:12:24.558Z,6.30
2022-08-04T04:13:28.924Z,8.70
2022-08-04T04:14:33.295Z,9.90
2022-08-04T04:15:37.691Z,6.00
2022-08-04T04:16:42.062Z,10.20
2022-08-04T04:17:46.424Z,9.30
2022-08-04T04:18:50.810Z,6.10
2022-08-04T04:19:58.661Z,6.00
2022-08-04T04:20:59.565Z,5.00
2022-08-04T04:22:03.936Z,6.60
2022-08-04T04:23:10.355Z,8.40
2022-08-04T04:24:12.695Z,9.20
2022-08-04T04:25:17.094Z,7.40
2022-08-04T04:26:21.465Z,7.40
2022-08-04T04:27:25.857Z,8.60
2022-08-04T04:28:43.745Z,7.00
2022-08-04T04:29:34.597Z,8.30
2022-08-04T04:30:38.997Z,7.60
2022-08-04T04:31:43.433Z,5.00
2022-08-04T04:32:47.807Z,5.50
2022-08-04T04:33:52.188Z,4.70
2022-08-04T04:34:56.557Z,5.20
2022-08-04T04:36:00.949Z,6.30
2022-08-04T04:37:05.330Z,8.50
2022-08-04T04:38:09.714Z,9.90
2022-08-04T04:39:14.147Z,4.50
2022-08-04T04:40:18.458Z,7.50
2022-08-04T04:41:22.858Z,6.20
2022-08-04T04:42:27.238Z,7.10
2022-08-04T04:43:52.208Z,5.30
2022-08-04T04:59:56.257Z,7.20
2022-08-04T05:01:00.692Z,5.00
2022-08-04T05:02:05.155Z,5.30
2022-08-04T05:03:09.717Z,4.30
2022-08-04T05:04:13.987Z,4.00
2022-08-04T05:05:18.398Z,5.60
2022-08-04T05:06:22.851Z,7.10
2022-08-04T05:07:27.255Z,4.10
2022-08-04T05:08:45.383Z,4.80
2022-08-04T05:09:36.072Z,4.80
2022-08-04T05:10:40.491Z,5.00
2022-08-04T05:11:44.908Z,4.00
2022-08-04T05:14:32.719Z,6.40
2022-08-04T05:14:34.421Z,4.90
2022-08-04T05:14:58.110Z,4.60
2022-08-04T05:16:02.530Z,4.10
2022-08-04T05:17:06.969Z,5.80
2022-08-04T05:18:11.362Z,6.80
2022-08-04T05:19:15.762Z,4.40
2022-08-04T05:20:20.182Z,6.90
2022-08-04T05:21:24.583Z,5.60
2022-08-04T05:22:29.007Z,5.10
2022-08-04T05:23:33.411Z,4.50
2022-08-04T05:24:37.810Z,5.80
2022-08-04T05:25:42.221Z,5.20
2022-08-04T05:26:46.641Z,5.60
2022-08-04T05:27:51.051Z,5.10
2022-08-04T05:28:55.462Z,5.50
2022-08-04T05:29:59.862Z,6.30
2022-08-04T05:31:04.261Z,5.00
2022-08-04T05:32:08.683Z,8.90
2022-08-04T05:33:13.084Z,5.60
2022-08-04T05:34:17.492Z,3.60
2022-08-04T05:36:15.980Z,4.30
2022-08-04T05:36:40.589Z,4.90
2022-08-04T05:37:31.644Z,5.50
2022-08-04T05:38:36.052Z,4.90
2022-08-04T05:39:40.484Z,6.00
2022-08-04T05:40:44.852Z,6.30
2022-08-04T05:41:55.711Z,5.00
2022-08-04T05:42:53.674Z,3.60
2022-08-04T05:43:58.072Z,5.40
2022-08-04T05:45:02.473Z,5.10
2022-08-04T05:46:06.869Z,7.20
2022-08-04T05:47:11.285Z,5.40
2022-08-04T05:48:15.683Z,4.70
2022-08-04T05:49:22.170Z,7.40
2022-08-04T05:50:24.484Z,3.20
2022-08-04T05:51:28.885Z,5.60
2022-08-04T05:52:33.305Z,6.50
2022-08-04T05:53:37.716Z,7.10
2022-08-04T05:54:42.113Z,6.30
2022-08-04T05:55:57.090Z,7.20
2022-08-04T05:56:50.909Z,5.10
2022-08-04T05:57:55.793Z,4.50
2022-08-04T05:58:59.742Z,7.00
2022-08-04T06:00:14.854Z,4.40
2022-08-04T06:01:08.544Z,4.80
2022-08-04T06:02:13.037Z,4.70
2022-08-04T06:03:17.395Z,4.20
2022-08-04T06:04:21.798Z,5.10
2022-08-04T06:05:26.197Z,3.40
2022-08-04T06:06:30.596Z,5.00
2022-08-04T06:07:35.008Z,4.80
2022-08-04T06:08:39.417Z,6.80
2022-08-04T06:09:43.819Z,6.00
2022-08-04T06:10:48.209Z,5.90
2022-08-04T06:12:00.789Z,3.40
2022-08-04T06:12:57.142Z,7.00
2022-08-04T06:14:01.543Z,5.30
2022-08-04T06:15:05.938Z,3.20
2022-08-04T06:16:28.567Z,4.40
2022-08-04T06:18:32.863Z,4.30
2022-08-04T06:18:33.428Z,6.90
2022-08-04T06:20:03.891Z,4.90
2022-08-04T06:20:28.308Z,3.10
2022-08-04T06:21:32.322Z,3.20
2022-08-04T06:22:36.739Z,3.80
2022-08-04T06:23:56.930Z,2.50
2022-08-04T06:24:45.580Z,4.70
2022-08-04T06:25:49.980Z,3.80
2022-08-04T06:26:54.384Z,6.50
2022-08-04T06:27:58.803Z,4.70
2022-08-04T06:29:03.201Z,6.30
2022-08-04T06:30:07.601Z,4.20
2022-08-04T06:32:27.333Z,4.60
2022-08-04T06:32:30.120Z,4.60
2022-08-04T06:33:20.820Z,3.30
2022-08-04T06:34:25.224Z,3.10
2022-08-04T06:35:29.619Z,3.90
2022-08-04T06:36:34.015Z,3.80
2022-08-04T06:37:43.573Z,3.50
2022-08-04T06:38:42.844Z,4.30
2022-08-04T06:39:47.254Z,3.30
2022-08-04T06:40:51.650Z,4.40
2022-08-04T06:42:19.303Z,4.40
2022-08-04T06:43:00.477Z,4.70
2022-08-04T06:44:04.875Z,4.60
2022-08-04T06:45:09.264Z,5.10
2022-08-04T06:46:13.655Z,4.50
2022-08-04T06:47:18.085Z,4.50
2022-08-04T06:48:22.504Z,4.70
2022-08-04T06:49:26.894Z,4.30
2022-08-04T06:51:24.917Z,4.50
2022-08-04T06:51:45.138Z,4.00
2022-08-04T06:52:40.496Z,5.70
2022-08-04T06:53:44.886Z,5.10
2022-08-04T06:54:49.283Z,3.40
2022-08-04T06:55:53.686Z,2.80
2022-08-04T06:56:58.086Z,6.30
2022-08-04T06:58:03.249Z,3.80
2022-08-04T06:59:06.906Z,4.30
2022-08-04T07:00:11.306Z,2.30
2022-08-04T07:01:15.748Z,4.30
2022-08-04T07:02:20.096Z,6.30
2022-08-04T07:03:24.522Z,4.40
2022-08-04T07:04:28.915Z,6.00
2022-08-04T07:05:33.316Z,4.50
2022-08-04T07:06:37.709Z,5.00
2022-08-04T07:07:57.293Z,3.40
2022-08-04T07:08:46.536Z,3.70
2022-08-04T07:09:50.943Z,7.70
2022-08-04T07:10:55.328Z,4.30
2022-08-04T07:11:59.730Z,8.50
2022-08-04T07:13:04.146Z,6.90
2022-08-04T07:14:08.539Z,4.90
2022-08-04T07:15:14.286Z,3.40
2022-08-04T07:16:17.338Z,5.50
2022-08-04T07:17:22.066Z,5.50
2022-08-04T07:18:26.153Z,7.10
2022-08-04T07:19:30.548Z,3.00
2022-08-04T07:20:36.849Z,4.50
2022-08-04T07:21:39.340Z,4.10
2022-08-04T07:22:43.751Z,4.10
2022-08-04T07:23:48.170Z,3.90
2022-08-04T07:24:52.570Z,3.50
2022-08-04T07:26:12.350Z,6.30
2022-08-04T07:27:01.396Z,2.70
2022-08-04T07:28:05.814Z,4.40
2022-08-04T07:29:10.211Z,4.30
2022-08-04T07:30:14.610Z,3.10
2022-08-04T07:31:34.150Z,4.20
2022-08-04T07:32:24.261Z,2.20
2022-08-04T07:33:28.730Z,3.00
2022-08-04T07:34:33.081Z,4.40
2022-08-04T07:36:04.820Z,5.70
2022-08-04T07:36:50.553Z,2.50
2022-08-04T07:37:46.285Z,4.80
2022-08-04T07:38:51.765Z,3.00
2022-08-04T07:39:55.139Z,7.20
2022-08-04T07:40:59.490Z,3.00
2022-08-04T07:42:03.895Z,4.10
2022-08-04T07:43:08.283Z,2.40
2022-08-04T07:44:12.703Z,4.40
2022-08-04T07:45:17.094Z,3.30
2022-08-04T07:46:21.514Z,3.00
2022-08-04T07:47:25.926Z,3.00
2022-08-04T07:48:30.346Z,2.10
2022-08-04T07:49:55.530Z,5.40
2022-08-04T07:50:39.135Z,5.00
2022-08-04T07:51:43.541Z,6.10
2022-08-04T07:52:58.706Z,2.10
2022-08-04T07:53:52.863Z,3.80
2022-08-04T07:54:56.756Z,4.80
2022-08-04T07:56:01.167Z,3.90
2022-08-04T07:57:05.566Z,4.70
2022-08-04T07:58:09.953Z,4.30
2022-08-04T07:59:14.366Z,4.00
2022-08-04T08:00:18.765Z,3.30
2022-08-04T08:01:23.180Z,5.40
2022-08-04T08:02:27.627Z,6.40
2022-08-04T08:03:32.082Z,2.80
2022-08-04T08:04:36.460Z,4.20
2022-08-04T08:06:16.739Z,5.10
2022-08-04T08:06:45.247Z,4.50
2022-08-04T08:07:50.055Z,4.30
2022-08-04T08:08:54.075Z,5.70
2022-08-04T08:09:58.476Z,4.80
2022-08-04T08:11:02.869Z,3.00
2022-08-04T08:12:35.505Z,2.70
2022-08-04T08:13:11.669Z,3.50
2022-08-04T08:14:16.078Z,3.70
2022-08-04T08:15:20.495Z,3.70
2022-08-04T08:16:25.434Z,2.90
2022-08-04T08:17:29.261Z,4.50
2022-08-04T08:18:33.680Z,4.20
2022-08-04T08:19:38.092Z,4.00
2022-08-04T08:20:42.490Z,3.80
2022-08-04T08:21:58.968Z,5.20
2022-08-04T08:22:51.310Z,5.60
2022-08-04T08:23:55.729Z,4.30
2022-08-04T08:25:00.124Z,4.50
2022-08-04T08:26:04.522Z,6.70
2022-08-04T08:27:08.930Z,2.20
2022-08-04T08:28:13.321Z,3.60
2022-08-04T08:29:17.749Z,5.30
2022-08-04T08:30:22.139Z,2.60
2022-08-04T08:31:57.338Z,6.20
2022-08-04T08:32:30.941Z,4.40
2022-08-04T08:33:35.341Z,3.80
2022-08-04T08:34:39.753Z,5.00
2022-08-04T08:35:52.108Z,3.80
2022-08-04T08:36:48.560Z,3.20
2022-08-04T08:37:52.953Z,4.40
2022-08-04T08:38:57.389Z,4.30
2022-08-04T08:40:01.781Z,6.30
2022-08-04T08:41:06.170Z,4.80
2022-08-04T08:42:10.560Z,4.30
2022-08-04T08:44:03.958Z,6.50
2022-08-04T08:44:36.510Z,5.20
2022-08-04T08:45:23.774Z,4.60
2022-08-04T08:46:47.968Z,4.40
2022-08-04T08:47:58.465Z,2.70
2022-08-04T08:48:36.966Z,3.90
2022-08-04T08:50:02.679Z,5.90
2022-08-04T08:50:45.796Z,3.50
2022-08-04T08:51:50.175Z,7.10
2022-08-04T08:52:57.484Z,4.20
2022-08-04T08:53:58.984Z,3.50
2022-08-04T08:55:03.405Z,4.70
2022-08-04T08:56:07.794Z,6.40
2022-08-04T08:57:12.197Z,2.60
2022-08-04T08:58:16.583Z,7.90
2022-08-04T08:59:21.015Z,4.30
2022-08-04T09:00:31.820Z,3.30
2022-08-04T09:01:29.840Z,3.00
2022-08-04T09:02:34.197Z,4.60
2022-08-04T09:03:38.595Z,4.20
2022-08-04T09:04:43.006Z,3.80
2022-08-04T09:05:47.405Z,6.20
2022-08-04T09:06:51.795Z,3.20
2022-08-04T09:07:56.187Z,2.90
2022-08-04T09:09:00.577Z,3.00
2022-08-04T09:10:04.998Z,5.10
2022-08-04T09:11:09.351Z,3.60
2022-08-04T09:12:13.730Z,3.00
2022-08-04T09:13:18.126Z,2.70
2022-08-04T09:14:22.508Z,7.60
2022-08-04T09:15:26.928Z,3.40
2022-08-04T09:16:31.319Z,5.60
2022-08-04T09:17:35.711Z,4.20
2022-08-04T09:18:40.958Z,2.80
2022-08-04T09:19:45.356Z,8.00
2022-08-04T09:20:49.776Z,3.30
2022-08-04T09:21:54.169Z,4.20
2022-08-04T09:22:58.568Z,2.80
2022-08-04T09:24:03.011Z,2.90
2022-08-04T09:25:07.392Z,5.10
2022-08-04T09:26:11.769Z,2.10
2022-08-04T09:27:16.170Z,4.70
2022-08-04T09:28:43.668Z,3.70
2022-08-04T09:29:24.957Z,6.40
2022-08-04T09:30:29.376Z,3.90
2022-08-04T09:31:48.741Z,3.60
2022-08-04T09:32:38.191Z,3.70
2022-08-04T09:33:45.688Z,6.70
2022-08-04T09:34:46.997Z,5.00
2022-08-04T09:35:51.430Z,5.70
2022-08-04T09:36:55.825Z,2.30
2022-08-04T09:38:00.229Z,3.30
2022-08-04T09:39:04.641Z,6.70
2022-08-04T09:40:09.042Z,3.50
2022-08-04T09:41:39.468Z,4.70
2022-08-04T09:42:17.833Z,4.30
2022-08-04T09:43:22.236Z,5.50
2022-08-04T09:44:52.610Z,4.30
2022-08-04T09:45:42.733Z,3.80
2022-08-04T09:46:35.456Z,1.90
2022-08-04T09:47:40.720Z,2.80
2022-08-04T09:48:44.239Z,3.60
2022-08-04T09:49:48.632Z,4.00
2022-08-04T09:50:53.062Z,6.50
2022-08-04T09:51:59.621Z,5.70
2022-08-04T09:53:01.854Z,6.00
2022-08-04T09:54:06.260Z,3.90
2022-08-04T09:55:10.646Z,2.00
2022-08-04T09:56:15.065Z,3.50
2022-08-04T09:57:19.465Z,4.30
2022-08-04T09:58:23.853Z,4.10
2022-08-04T09:59:28.249Z,6.10
2022-08-04T10:00:41.044Z,7.10
2022-08-04T10:01:37.055Z,3.60
2022-08-04T10:02:41.489Z,5.50
2022-08-04T10:03:45.841Z,5.40
2022-08-04T10:04:50.238Z,5.20
2022-08-04T10:05:54.659Z,4.90
2022-08-04T10:06:59.058Z,2.90
2022-08-04T10:08:16.066Z,2.90
2022-08-04T10:09:07.846Z,3.30
2022-08-04T10:10:12.243Z,2.50
2022-08-04T10:11:16.666Z,3.50
2022-08-04T10:12:21.138Z,4.10
2022-08-04T10:13:25.499Z,3.20
2022-08-04T10:14:29.901Z,4.90
2022-08-04T10:15:34.309Z,3.60
2022-08-04T10:16:38.728Z,2.80
2022-08-04T10:17:50.405Z,3.10
2022-08-04T10:18:47.523Z,4.40
2022-08-04T10:19:51.908Z,3.90
2022-08-04T10:21:00.056Z,3.10
2022-08-04T10:22:28.552Z,6.40
2022-08-04T10:23:11.481Z,2.10
2022-08-04T10:24:09.508Z,6.30
2022-08-04T10:26:06.001Z,4.60
2022-08-04T10:26:18.330Z,3.00
2022-08-04T10:27:22.895Z,3.30
2022-08-04T10:28:27.101Z,4.90
2022-08-04T10:29:31.507Z,2.50
2022-08-04T10:30:35.900Z,7.20
2022-08-04T10:31:40.323Z,5.10
2022-08-04T10:32:44.718Z,1.80
2022-08-04T10:33:49.121Z,7.10
2022-08-04T10:34:53.526Z,2.70
2022-08-04T10:35:57.924Z,7.10
2022-08-04T10:37:02.341Z,4.20
2022-08-04T10:38:06.742Z,4.40
2022-08-04T10:39:13.826Z,6.60
2022-08-04T10:40:15.756Z,5.20
2022-08-04T10:41:19.955Z,3.90
2022-08-04T10:42:24.352Z,3.60
2022-08-04T10:43:28.747Z,2.80
2022-08-04T10:44:42.394Z,6.90
2022-08-04T10:45:37.538Z,2.70
2022-08-04T10:46:41.964Z,3.40
2022-08-04T10:47:53.444Z,2.10
2022-08-04T10:48:50.767Z,1.90
2022-08-04T10:49:55.256Z,3.80
2022-08-04T10:50:59.546Z,1.60
2022-08-04T10:52:03.973Z,3.80
2022-08-04T10:53:09.581Z,2.90
2022-08-04T10:54:12.775Z,3.90
2022-08-04T10:55:18.405Z,5.50
2022-08-04T10:56:21.597Z,3.60
2022-08-04T10:57:25.984Z,3.10
2022-08-04T10:58:47.039Z,4.00
2022-08-04T10:59:34.784Z,5.20
2022-08-04T11:00:39.176Z,3.20
2022-08-04T11:01:59.810Z,3.00
2022-08-04T11:02:48.102Z,3.00
2022-08-04T11:03:52.406Z,3.90
2022-08-04T11:04:56.810Z,4.10
2022-08-04T11:06:01.206Z,4.60
2022-08-04T11:07:05.618Z,4.20
2022-08-04T11:08:12.382Z,4.10
2022-08-04T11:09:15.209Z,5.40
2022-08-04T11:10:18.807Z,4.40
2022-08-04T11:11:23.206Z,3.90
2022-08-04T11:12:27.980Z,6.30
2022-08-04T11:13:32.385Z,2.70
2022-08-04T11:14:36.786Z,4.30
2022-08-04T11:15:41.157Z,4.90
2022-08-04T11:16:45.651Z,5.20
2022-08-04T11:17:50.037Z,1.30
2022-08-04T11:18:54.427Z,3.20
2022-08-04T11:20:12.609Z,2.60
2022-08-04T11:21:03.218Z,2.50
2022-08-04T11:22:08.567Z,5.70
2022-08-04T11:23:12.031Z,3.30
2022-08-04T11:24:16.429Z,2.10
2022-08-04T11:25:20.836Z,3.00
2022-08-04T11:26:25.229Z,2.70
2022-08-04T11:27:29.639Z,3.50
2022-08-04T11:28:34.042Z,3.90
2022-08-04T11:29:38.442Z,2.80
2022-08-04T11:30:42.831Z,3.30
2022-08-04T11:31:51.469Z,4.80
2022-08-04T11:32:51.660Z,1.80
2022-08-04T11:33:56.052Z,3.70
2022-08-04T11:35:00.446Z,3.90
2022-08-04T11:36:04.830Z,2.90
2022-08-04T11:37:14.355Z,5.70
2022-08-04T11:38:13.652Z,2.30
2022-08-04T11:39:18.085Z,2.00
2022-08-04T11:40:22.443Z,4.50
2022-08-04T11:41:26.833Z,1.90
2022-08-04T11:42:31.249Z,2.20
2022-08-04T11:44:00.737Z,3.00
2022-08-04T11:44:40.037Z,7.40
2022-08-04T11:45:44.433Z,3.10
2022-08-04T11:46:48.823Z,4.70
2022-08-04T11:47:53.252Z,3.20
2022-08-04T11:48:57.643Z,3.90
2022-08-04T11:50:02.044Z,2.20
2022-08-04T11:51:06.692Z,15.60
2022-08-04T11:52:10.867Z,4.70
2022-08-04T11:53:15.244Z,4.30
2022-08-04T11:54:19.645Z,4.00
2022-08-04T11:55:24.032Z,3.00
2022-08-04T11:56:37.143Z,6.30
2022-08-04T11:57:35.646Z,3.80
2022-08-04T11:58:37.244Z,2.50
2022-08-04T11:59:41.634Z,2.80
2022-08-04T12:00:46.035Z,1.80
2022-08-04T12:01:50.482Z,3.50
2022-08-04T12:02:54.845Z,2.60
2022-08-04T12:04:03.707Z,3.00
2022-08-04T12:05:03.636Z,4.10
2022-08-04T12:06:08.024Z,2.30
2022-08-04T12:08:16.828Z,2.60
2022-08-04T12:09:21.236Z,3.90
2022-08-04T12:10:41.344Z,5.80
2022-08-04T12:11:30.025Z,3.70
2022-08-04T12:12:34.439Z,1.30
2022-08-04T12:13:38.827Z,3.90
2022-08-04T12:14:44.069Z,2.50
2022-08-04T12:15:48.466Z,5.70
2022-08-04T12:16:52.918Z,2.40
2022-08-04T12:17:57.328Z,2.50
2022-08-04T12:19:03.095Z,4.20
2022-08-04T12:20:32.019Z,1.90
2022-08-04T12:21:10.547Z,3.10
2022-08-04T12:22:14.938Z,7.40
2022-08-04T12:23:20.585Z,3.00
2022-08-04T12:24:23.721Z,3.00
2022-08-04T12:25:28.099Z,2.30
2022-08-04T12:26:32.489Z,2.10
2022-08-04T12:27:36.904Z,2.40
2022-08-04T12:29:08.604Z,2.30
2022-08-04T12:29:54.335Z,2.40
2022-08-04T12:31:02.640Z,2.80
2022-08-04T12:31:54.412Z,4.50
2022-08-04T12:32:58.812Z,3.80
2022-08-04T12:34:06.325Z,3.50
2022-08-04T12:35:07.582Z,3.20
2022-08-04T12:36:11.965Z,6.60
2022-08-04T12:37:22.056Z,4.70
2022-08-04T12:38:20.753Z,5.30
2022-08-04T12:39:25.151Z,6.10
2022-08-04T12:40:31.180Z,6.20
2022-08-04T12:41:35.922Z,4.30
2022-08-04T12:42:38.294Z,3.90
2022-08-04T12:43:42.682Z,8.40
2022-08-04T12:44:47.054Z,3.90
2022-08-04T12:45:51.453Z,5.10
2022-08-04T12:46:55.815Z,4.10
2022-08-04T12:48:00.224Z,5.20
2022-08-04T12:49:04.590Z,4.00
2022-08-04T12:50:08.975Z,2.80
2022-08-04T12:52:06.775Z,7.00
2022-08-04T12:52:17.732Z,6.50
2022-08-04T12:53:31.839Z,3.90
2022-08-04T12:54:29.040Z,6.00
2022-08-04T12:55:30.892Z,3.90
2022-08-04T12:56:35.284Z,2.20
2022-08-04T12:57:39.683Z,5.30
2022-08-04T12:58:44.217Z,2.50
2022-08-04T12:59:57.050Z,4.90
2022-08-04T13:00:52.880Z,2.60
2022-08-04T13:02:10.105Z,5.00
2022-08-04T13:03:01.595Z,5.10
2022-08-04T13:04:05.956Z,3.80
2022-08-04T13:05:10.336Z,4.50
2022-08-04T13:06:18.483Z,8.00
2022-08-04T13:07:19.066Z,3.00
2022-08-04T13:08:23.459Z,12.90
2022-08-04T13:09:27.818Z,5.70
2022-08-04T13:10:32.176Z,2.60
2022-08-04T13:11:36.540Z,4.00
2022-08-04T13:12:40.916Z,6.10
2022-08-04T13:13:45.279Z,4.90
2022-08-04T13:14:49.657Z,4.60
2022-08-04T13:15:56.655Z,4.20
2022-08-04T13:16:58.417Z,5.60
2022-08-04T13:18:02.849Z,6.40
2022-08-04T13:19:07.191Z,5.10
2022-08-04T13:20:13.987Z,6.50
2022-08-04T13:21:20.955Z,4.10
2022-08-04T13:22:20.292Z,4.60
2022-08-04T13:23:24.688Z,5.00
2022-08-04T13:24:31.122Z,10.00
2022-08-04T13:26:44.301Z,8.80
2022-08-04T13:27:43.263Z,6.00
2022-08-04T13:28:46.574Z,8.20
2022-08-04T13:29:59.973Z,5.10
2022-08-04T13:30:25.228Z,6.70
2022-08-04T13:30:55.339Z,6.90
2022-08-04T13:31:59.707Z,3.00
2022-08-04T13:33:04.119Z,4.00
2022-08-04T13:34:08.500Z,5.10
2022-08-04T13:35:12.881Z,4.40
2022-08-04T13:36:17.273Z,5.30
2022-08-04T13:37:21.794Z,4.60
2022-08-04T13:38:26.033Z,4.80
2022-08-04T13:39:30.469Z,5.70
2022-08-04T13:40:34.812Z,3.00
2022-08-04T13:41:39.163Z,6.50
2022-08-04T13:42:43.543Z,6.10
2022-08-04T13:44:18.507Z,7.70
2022-08-04T13:44:52.324Z,5.20
2022-08-04T13:45:56.715Z,4.70
2022-08-04T13:47:01.081Z,8.00
2022-08-04T13:48:15.041Z,4.50
2022-08-04T13:49:28.267Z,4.90
2022-08-04T13:50:14.240Z,5.60
2022-08-04T13:51:18.586Z,6.40
2022-08-04T13:52:22.965Z,7.40
2022-08-04T13:53:31.134Z,6.70
2022-08-04T13:54:31.742Z,7.90
2022-08-04T13:55:36.105Z,5.00
2022-08-04T13:56:40.476Z,7.80
2022-08-04T13:57:44.848Z,8.00
2022-08-04T13:58:49.246Z,9.60
2022-08-04T13:59:53.627Z,8.10
2022-08-04T14:00:58.031Z,5.40
2022-08-04T14:02:02.406Z,6.50
2022-08-04T14:03:21.025Z,7.10
2022-08-04T14:04:11.157Z,6.70
2022-08-04T14:05:18.749Z,8.50
2022-08-04T14:06:19.925Z,7.30
2022-08-04T14:07:24.306Z,5.30
2022-08-04T14:08:29.089Z,7.10
2022-08-04T14:09:35.417Z,9.50
2022-08-04T14:10:37.450Z,6.80
2022-08-04T14:12:07.060Z,6.60
2022-08-04T14:12:47.289Z,7.50
2022-08-04T14:13:50.618Z,6.70
2022-08-04T14:14:54.998Z,5.30
2022-08-04T14:16:03.612Z,8.10
2022-08-04T14:17:03.753Z,5.30
2022-08-04T14:18:08.131Z,5.40
2022-08-04T14:19:12.518Z,8.20
2022-08-04T14:20:16.899Z,8.10
2022-08-04T14:21:21.289Z,4.80
2022-08-04T14:22:25.660Z,7.60
2022-08-04T14:23:33.101Z,8.10
2022-08-04T14:24:34.443Z,6.70
2022-08-04T14:25:38.823Z,9.10
2022-08-04T14:26:43.200Z,6.10
2022-08-04T14:27:47.593Z,5.60
2022-08-04T14:29:09.468Z,6.60
2022-08-04T14:29:56.371Z,8.10
2022-08-04T14:31:00.773Z,8.10